sensor_id;sensor_type;location;lat;lon;timestamp;temperature;humidity
10175;DHT22;18221;38.704;0.152;2022-12-29T00:10:10;12.40;99.90
10175;DHT22;18221;38.704;0.152;2022-12-29T00:12:39;12.40;99.90
10175;DHT22;18221;38.704;0.152;2022-12-29T00:15:24;12.30;99.90
10175;DHT22;18221;38.704;0.152;2022-12-29T00:18:05;12.30;99.90
10175;DHT22;18221;38.704;0.152;2022-12-29T00:20:34;12.40;99.90
10175;DHT22;18221;38.704;0.152;2022-12-29T00:23:21;12.50;99.90
10175;DHT22;18221;38.704;0.152;2022-12-29T00:26:13;12.60;99.90
10175;DHT22;18221;38.704;0.152;2022-12-29T00:28:59;12.70;99.90
10175;DHT22;18221;38.704;0.152;2022-12-29T00:31:45;12.80;99.90
10175;DHT22;18221;38.704;0.152;2022-12-29T00:34:30;12.90;99.90
10175;DHT22;18221;38.704;0.152;2022-12-29T00:37:15;12.90;99.90
10175;DHT22;18221;38.704;0.152;2022-12-29T00:40:05;12.80;99.90
10175;DHT22;18221;38.704;0.152;2022-12-29T00:42:52;12.60;99.90
10175;DHT22;18221;38.704;0.152;2022-12-29T00:45:40;12.60;99.90
10175;DHT22;18221;38.704;0.152;2022-12-29T00:48:08;12.50;99.90
10175;DHT22;18221;38.704;0.152;2022-12-29T00:50:36;12.50;99.90
10175;DHT22;18221;38.704;0.152;2022-12-29T00:53:04;12.40;99.90
10175;DHT22;18221;38.704;0.152;2022-12-29T00:55:36;12.50;99.90
10175;DHT22;18221;38.704;0.152;2022-12-29T00:58:06;12.50;99.90
10175;DHT22;18221;38.704;0.152;2022-12-29T01:00:34;12.50;99.90
10175;DHT22;18221;38.704;0.152;2022-12-29T01:03:03;12.40;99.90
10175;DHT22;18221;38.704;0.152;2022-12-29T01:05:31;12.40;99.90
10175;DHT22;18221;38.704;0.152;2022-12-29T01:08:04;12.40;99.90
10175;DHT22;18221;38.704;0.152;2022-12-29T01:10:32;12.40;99.90
10175;DHT22;18221;38.704;0.152;2022-12-29T01:12:59;12.40;99.90
10175;DHT22;18221;38.704;0.152;2022-12-29T01:15:29;12.40;99.90
10175;DHT22;18221;38.704;0.152;2022-12-29T01:17:58;12.40;99.90
10175;DHT22;18221;38.704;0.152;2022-12-29T01:20:26;12.40;99.90
10175;DHT22;18221;38.704;0.152;2022-12-29T01:22:54;12.40;99.90
10175;DHT22;18221;38.704;0.152;2022-12-29T01:25:23;12.40;99.90
10175;DHT22;18221;38.704;0.152;2022-12-29T01:27:51;12.40;99.90
10175;DHT22;18221;38.704;0.152;2022-12-29T01:30:19;12.30;99.90
10175;DHT22;18221;38.704;0.152;2022-12-29T01:32:49;12.30;99.90
10175;DHT22;18221;38.704;0.152;2022-12-29T01:35:17;12.30;99.90
10175;DHT22;18221;38.704;0.152;2022-12-29T01:37:46;12.30;99.90
10175;DHT22;18221;38.704;0.152;2022-12-29T01:40:14;12.20;99.90
10175;DHT22;18221;38.704;0.152;2022-12-29T01:42:43;12.20;99.90
10175;DHT22;18221;38.704;0.152;2022-12-29T01:45:13;12.20;99.90
10175;DHT22;18221;38.704;0.152;2022-12-29T01:47:45;12.20;99.90
10175;DHT22;18221;38.704;0.152;2022-12-29T01:50:30;12.20;99.90
10175;DHT22;18221;38.704;0.152;2022-12-29T01:53:03;12.20;99.90
10175;DHT22;18221;38.704;0.152;2022-12-29T01:55:42;12.20;99.90
10175;DHT22;18221;38.704;0.152;2022-12-29T01:58:15;12.10;99.90
10175;DHT22;18221;38.704;0.152;2022-12-29T02:00:45;12.10;99.90
10175;DHT22;18221;38.704;0.152;2022-12-29T02:03:16;12.10;99.90
10175;DHT22;18221;38.704;0.152;2022-12-29T02:05:52;12.10;99.90
10175;DHT22;18221;38.704;0.152;2022-12-29T02:08:28;12.20;99.90
10175;DHT22;18221;38.704;0.152;2022-12-29T02:10:59;12.20;99.90
10175;DHT22;18221;38.704;0.152;2022-12-29T02:13:28;12.10;99.90
10175;DHT22;18221;38.704;0.152;2022-12-29T02:16:10;12.00;99.90
10175;DHT22;18221;38.704;0.152;2022-12-29T02:18:57;12.00;99.90
10175;DHT22;18221;38.704;0.152;2022-12-29T02:22:01;12.00;99.90
10175;DHT22;18221;38.704;0.152;2022-12-29T02:27:58;12.00;99.90
10175;DHT22;18221;38.704;0.152;2022-12-29T02:31:06;12.10;99.90
10175;DHT22;18221;38.704;0.152;2022-12-29T02:33:51;12.10;99.90
10175;DHT22;18221;38.704;0.152;2022-12-29T02:36:39;12.00;99.90
10175;DHT22;18221;38.704;0.152;2022-12-29T02:39:15;11.90;99.90
10175;DHT22;18221;38.704;0.152;2022-12-29T02:41:57;12.00;99.90
10175;DHT22;18221;38.704;0.152;2022-12-29T02:44:36;12.00;99.90
10175;DHT22;18221;38.704;0.152;2022-12-29T02:47:17;11.90;99.90
10175;DHT22;18221;38.704;0.152;2022-12-29T02:49:57;12.00;99.90
10175;DHT22;18221;38.704;0.152;2022-12-29T02:52:36;11.90;99.90
10175;DHT22;18221;38.704;0.152;2022-12-29T02:55:11;11.90;99.90
10175;DHT22;18221;38.704;0.152;2022-12-29T02:57:38;12.00;99.90
10175;DHT22;18221;38.704;0.152;2022-12-29T03:00:09;12.10;99.90
10175;DHT22;18221;38.704;0.152;2022-12-29T03:03:13;12.00;99.90
10175;DHT22;18221;38.704;0.152;2022-12-29T03:06:04;11.90;99.90
10175;DHT22;18221;38.704;0.152;2022-12-29T03:08:47;11.90;99.90
10175;DHT22;18221;38.704;0.152;2022-12-29T03:11:25;11.90;99.90
10175;DHT22;18221;38.704;0.152;2022-12-29T03:14:21;12.00;99.90
10175;DHT22;18221;38.704;0.152;2022-12-29T03:17:24;12.00;99.90
10175;DHT22;18221;38.704;0.152;2022-12-29T03:20:04;12.20;99.90
10175;DHT22;18221;38.704;0.152;2022-12-29T03:22:41;12.10;99.90
10175;DHT22;18221;38.704;0.152;2022-12-29T03:25:18;12.00;99.90
10175;DHT22;18221;38.704;0.152;2022-12-29T03:27:55;12.00;99.90
10175;DHT22;18221;38.704;0.152;2022-12-29T03:30:26;11.20;99.90
10175;DHT22;18221;38.704;0.152;2022-12-29T03:32:59;12.00;99.90
10175;DHT22;18221;38.704;0.152;2022-12-29T03:35:34;12.00;99.90
10175;DHT22;18221;38.704;0.152;2022-12-29T03:38:09;12.00;99.90
10175;DHT22;18221;38.704;0.152;2022-12-29T03:40:44;12.10;99.90
10175;DHT22;18221;38.704;0.152;2022-12-29T03:43:16;12.10;99.90
10175;DHT22;18221;38.704;0.152;2022-12-29T03:45:45;12.10;99.90
10175;DHT22;18221;38.704;0.152;2022-12-29T03:48:13;12.00;99.90
10175;DHT22;18221;38.704;0.152;2022-12-29T03:50:43;12.00;99.90
10175;DHT22;18221;38.704;0.152;2022-12-29T03:53:11;12.10;99.90
10175;DHT22;18221;38.704;0.152;2022-12-29T03:55:40;12.10;99.90
10175;DHT22;18221;38.704;0.152;2022-12-29T03:58:08;12.00;99.90
10175;DHT22;18221;38.704;0.152;2022-12-29T04:00:37;12.00;99.90
10175;DHT22;18221;38.704;0.152;2022-12-29T04:03:05;12.10;99.90
10175;DHT22;18221;38.704;0.152;2022-12-29T04:05:34;12.10;99.90
10175;DHT22;18221;38.704;0.152;2022-12-29T04:08:04;12.10;99.90
10175;DHT22;18221;38.704;0.152;2022-12-29T04:10:32;12.10;99.90
10175;DHT22;18221;38.704;0.152;2022-12-29T04:13:01;12.10;99.90
10175;DHT22;18221;38.704;0.152;2022-12-29T04:15:29;12.00;99.90
10175;DHT22;18221;38.704;0.152;2022-12-29T04:17:58;12.00;99.90
10175;DHT22;18221;38.704;0.152;2022-12-29T04:20:26;12.00;99.90
10175;DHT22;18221;38.704;0.152;2022-12-29T04:23:12;12.00;99.90
10175;DHT22;18221;38.704;0.152;2022-12-29T04:25:41;12.00;99.90
10175;DHT22;18221;38.704;0.152;2022-12-29T04:28:13;12.00;99.90
10175;DHT22;18221;38.704;0.152;2022-12-29T04:30:42;12.10;99.90
10175;DHT22;18221;38.704;0.152;2022-12-29T04:33:10;12.00;99.90
10175;DHT22;18221;38.704;0.152;2022-12-29T04:35:39;12.00;99.90
10175;DHT22;18221;38.704;0.152;2022-12-29T04:38:07;12.00;99.90
10175;DHT22;18221;38.704;0.152;2022-12-29T04:40:38;11.90;99.90
10175;DHT22;18221;38.704;0.152;2022-12-29T04:43:07;11.90;99.90
10175;DHT22;18221;38.704;0.152;2022-12-29T04:45:36;11.90;99.90
10175;DHT22;18221;38.704;0.152;2022-12-29T04:48:05;11.90;99.90
10175;DHT22;18221;38.704;0.152;2022-12-29T04:50:34;11.90;99.90
10175;DHT22;18221;38.704;0.152;2022-12-29T04:53:02;11.90;99.90
10175;DHT22;18221;38.704;0.152;2022-12-29T04:55:31;11.90;99.90
10175;DHT22;18221;38.704;0.152;2022-12-29T04:58:01;11.90;99.90
10175;DHT22;18221;38.704;0.152;2022-12-29T05:00:29;11.90;99.90
10175;DHT22;18221;38.704;0.152;2022-12-29T05:02:58;11.90;99.90
10175;DHT22;18221;38.704;0.152;2022-12-29T05:05:26;12.00;99.90
10175;DHT22;18221;38.704;0.152;2022-12-29T05:07:55;12.10;99.90
10175;DHT22;18221;38.704;0.152;2022-12-29T05:10:23;12.10;99.90
10175;DHT22;18221;38.704;0.152;2022-12-29T05:12:51;12.20;99.90
10175;DHT22;18221;38.704;0.152;2022-12-29T05:15:21;12.20;99.90
10175;DHT22;18221;38.704;0.152;2022-12-29T05:17:49;12.20;99.90
10175;DHT22;18221;38.704;0.152;2022-12-29T05:20:18;12.20;99.90
10175;DHT22;18221;38.704;0.152;2022-12-29T05:22:46;12.20;99.90
10175;DHT22;18221;38.704;0.152;2022-12-29T05:25:15;12.10;99.90
10175;DHT22;18221;38.704;0.152;2022-12-29T05:27:43;12.10;99.90
10175;DHT22;18221;38.704;0.152;2022-12-29T05:30:12;12.10;99.90
10175;DHT22;18221;38.704;0.152;2022-12-29T05:32:42;12.00;99.90
10175;DHT22;18221;38.704;0.152;2022-12-29T05:35:10;12.00;99.90
10175;DHT22;18221;38.704;0.152;2022-12-29T05:37:39;11.90;99.90
10175;DHT22;18221;38.704;0.152;2022-12-29T05:40:08;11.90;99.90
10175;DHT22;18221;38.704;0.152;2022-12-29T05:42:37;11.90;99.90
10175;DHT22;18221;38.704;0.152;2022-12-29T05:45:07;11.80;99.90
10175;DHT22;18221;38.704;0.152;2022-12-29T05:47:38;11.70;99.90
10175;DHT22;18221;38.704;0.152;2022-12-29T05:50:08;11.70;99.90
10175;DHT22;18221;38.704;0.152;2022-12-29T05:52:37;11.70;99.90
10175;DHT22;18221;38.704;0.152;2022-12-29T05:55:06;11.80;99.90
10175;DHT22;18221;38.704;0.152;2022-12-29T05:57:35;11.80;99.90
10175;DHT22;18221;38.704;0.152;2022-12-29T06:00:04;11.90;99.90
10175;DHT22;18221;38.704;0.152;2022-12-29T06:02:33;11.90;99.90
10175;DHT22;18221;38.704;0.152;2022-12-29T06:05:02;11.90;99.90
10175;DHT22;18221;38.704;0.152;2022-12-29T06:07:32;11.90;99.90
10175;DHT22;18221;38.704;0.152;2022-12-29T06:10:01;12.10;99.90
10175;DHT22;18221;38.704;0.152;2022-12-29T06:12:29;12.20;99.90
10175;DHT22;18221;38.704;0.152;2022-12-29T06:14:58;12.30;99.90
10175;DHT22;18221;38.704;0.152;2022-12-29T06:17:26;12.40;99.90
10175;DHT22;18221;38.704;0.152;2022-12-29T06:19:55;12.50;99.90
10175;DHT22;18221;38.704;0.152;2022-12-29T06:22:24;12.50;99.90
10175;DHT22;18221;38.704;0.152;2022-12-29T06:24:54;12.60;99.90
10175;DHT22;18221;38.704;0.152;2022-12-29T06:27:23;12.60;99.90
10175;DHT22;18221;38.704;0.152;2022-12-29T06:29:51;12.70;99.90
10175;DHT22;18221;38.704;0.152;2022-12-29T06:32:20;12.70;99.90
10175;DHT22;18221;38.704;0.152;2022-12-29T06:34:48;12.80;99.90
10175;DHT22;18221;38.704;0.152;2022-12-29T06:37:17;12.80;99.90
10175;DHT22;18221;38.704;0.152;2022-12-29T06:39:45;12.80;99.90
10175;DHT22;18221;38.704;0.152;2022-12-29T06:42:15;12.80;99.90
10175;DHT22;18221;38.704;0.152;2022-12-29T06:44:43;12.70;99.90
10175;DHT22;18221;38.704;0.152;2022-12-29T06:47:12;12.70;99.90
10175;DHT22;18221;38.704;0.152;2022-12-29T06:49:40;12.80;99.90
10175;DHT22;18221;38.704;0.152;2022-12-29T06:52:08;12.70;99.90
10175;DHT22;18221;38.704;0.152;2022-12-29T06:54:37;12.60;99.90
10175;DHT22;18221;38.704;0.152;2022-12-29T06:57:05;12.60;99.90
10175;DHT22;18221;38.704;0.152;2022-12-29T06:59:35;12.50;99.90
10175;DHT22;18221;38.704;0.152;2022-12-29T07:02:03;12.50;99.90
10175;DHT22;18221;38.704;0.152;2022-12-29T07:04:31;12.60;99.90
10175;DHT22;18221;38.704;0.152;2022-12-29T07:07:00;12.60;99.90
10175;DHT22;18221;38.704;0.152;2022-12-29T07:09:28;12.60;99.90
10175;DHT22;18221;38.704;0.152;2022-12-29T07:11:56;12.70;99.90
10175;DHT22;18221;38.704;0.152;2022-12-29T07:14:25;12.80;99.90
10175;DHT22;18221;38.704;0.152;2022-12-29T07:16:55;12.90;99.90
10175;DHT22;18221;38.704;0.152;2022-12-29T07:19:23;12.80;99.90
10175;DHT22;18221;38.704;0.152;2022-12-29T07:21:53;12.80;99.90
10175;DHT22;18221;38.704;0.152;2022-12-29T07:24:22;12.80;99.90
10175;DHT22;18221;38.704;0.152;2022-12-29T07:26:51;12.80;99.90
10175;DHT22;18221;38.704;0.152;2022-12-29T07:29:20;12.80;99.90
10175;DHT22;18221;38.704;0.152;2022-12-29T07:31:48;12.90;99.90
10175;DHT22;18221;38.704;0.152;2022-12-29T07:34:18;12.90;99.90
10175;DHT22;18221;38.704;0.152;2022-12-29T07:36:47;12.90;99.90
10175;DHT22;18221;38.704;0.152;2022-12-29T07:39:15;13.00;99.90
10175;DHT22;18221;38.704;0.152;2022-12-29T07:41:47;13.00;99.90
10175;DHT22;18221;38.704;0.152;2022-12-29T07:44:15;13.00;99.90
10175;DHT22;18221;38.704;0.152;2022-12-29T07:46:43;13.10;99.90
10175;DHT22;18221;38.704;0.152;2022-12-29T07:49:11;13.10;99.90
10175;DHT22;18221;38.704;0.152;2022-12-29T07:51:41;13.10;99.90
10175;DHT22;18221;38.704;0.152;2022-12-29T07:54:10;13.10;99.90
10175;DHT22;18221;38.704;0.152;2022-12-29T07:56:38;13.20;99.90
10175;DHT22;18221;38.704;0.152;2022-12-29T07:59:07;13.20;99.90
10175;DHT22;18221;38.704;0.152;2022-12-29T08:01:35;13.20;99.90
10175;DHT22;18221;38.704;0.152;2022-12-29T08:04:04;13.20;99.90
10175;DHT22;18221;38.704;0.152;2022-12-29T08:06:32;13.20;99.90
10175;DHT22;18221;38.704;0.152;2022-12-29T08:09:02;13.20;99.90
10175;DHT22;18221;38.704;0.152;2022-12-29T08:11:31;13.20;99.90
10175;DHT22;18221;38.704;0.152;2022-12-29T08:13:59;13.20;99.90
10175;DHT22;18221;38.704;0.152;2022-12-29T08:16:27;13.30;99.90
10175;DHT22;18221;38.704;0.152;2022-12-29T08:18:56;13.30;99.90
10175;DHT22;18221;38.704;0.152;2022-12-29T08:21:25;13.30;99.90
10175;DHT22;18221;38.704;0.152;2022-12-29T08:23:54;13.30;99.90
10175;DHT22;18221;38.704;0.152;2022-12-29T08:26:24;13.40;99.90
10175;DHT22;18221;38.704;0.152;2022-12-29T08:28:53;13.60;99.90
10175;DHT22;18221;38.704;0.152;2022-12-29T08:31:22;13.60;99.90
10175;DHT22;18221;38.704;0.152;2022-12-29T08:33:51;13.70;99.90
10175;DHT22;18221;38.704;0.152;2022-12-29T08:36:19;13.70;99.90
10175;DHT22;18221;38.704;0.152;2022-12-29T08:38:47;13.80;99.90
10175;DHT22;18221;38.704;0.152;2022-12-29T08:41:16;13.90;99.90
10175;DHT22;18221;38.704;0.152;2022-12-29T08:43:47;13.90;99.90
10175;DHT22;18221;38.704;0.152;2022-12-29T08:46:16;13.90;99.90
10175;DHT22;18221;38.704;0.152;2022-12-29T08:48:45;14.00;99.90
10175;DHT22;18221;38.704;0.152;2022-12-29T08:51:13;14.00;99.90
10175;DHT22;18221;38.704;0.152;2022-12-29T08:53:43;14.10;99.90
10175;DHT22;18221;38.704;0.152;2022-12-29T08:56:12;14.20;99.90
10175;DHT22;18221;38.704;0.152;2022-12-29T08:58:41;14.20;99.90
10175;DHT22;18221;38.704;0.152;2022-12-29T09:01:11;14.20;99.90
10175;DHT22;18221;38.704;0.152;2022-12-29T09:03:40;14.20;99.90
10175;DHT22;18221;38.704;0.152;2022-12-29T09:06:09;14.30;99.90
10175;DHT22;18221;38.704;0.152;2022-12-29T09:08:38;14.20;99.90
10175;DHT22;18221;38.704;0.152;2022-12-29T09:11:09;14.20;99.90
10175;DHT22;18221;38.704;0.152;2022-12-29T09:13:39;14.20;99.90
10175;DHT22;18221;38.704;0.152;2022-12-29T09:16:14;14.20;99.90
10175;DHT22;18221;38.704;0.152;2022-12-29T09:18:43;14.20;99.90
10175;DHT22;18221;38.704;0.152;2022-12-29T09:21:13;14.10;99.90
10175;DHT22;18221;38.704;0.152;2022-12-29T09:23:42;14.10;99.90
10175;DHT22;18221;38.704;0.152;2022-12-29T09:26:11;14.00;99.90
10175;DHT22;18221;38.704;0.152;2022-12-29T09:28:41;14.00;99.90
10175;DHT22;18221;38.704;0.152;2022-12-29T09:31:12;14.00;99.90
10175;DHT22;18221;38.704;0.152;2022-12-29T09:33:41;14.10;99.90
10175;DHT22;18221;38.704;0.152;2022-12-29T09:36:10;14.10;99.90
10175;DHT22;18221;38.704;0.152;2022-12-29T09:38:38;14.10;99.90
10175;DHT22;18221;38.704;0.152;2022-12-29T09:41:19;14.10;99.90
10175;DHT22;18221;38.704;0.152;2022-12-29T09:44:13;14.10;99.90
10175;DHT22;18221;38.704;0.152;2022-12-29T09:46:51;14.10;99.90
10175;DHT22;18221;38.704;0.152;2022-12-29T09:49:25;14.10;99.90
10175;DHT22;18221;38.704;0.152;2022-12-29T09:52:11;14.10;99.90
10175;DHT22;18221;38.704;0.152;2022-12-29T09:54:50;14.20;99.90
10175;DHT22;18221;38.704;0.152;2022-12-29T09:57:24;14.20;99.90
10175;DHT22;18221;38.704;0.152;2022-12-29T09:59:58;14.20;99.90
10175;DHT22;18221;38.704;0.152;2022-12-29T10:02:37;14.30;99.90
10175;DHT22;18221;38.704;0.152;2022-12-29T10:05:37;14.30;99.90
10175;DHT22;18221;38.704;0.152;2022-12-29T10:08:23;14.30;99.90
10175;DHT22;18221;38.704;0.152;2022-12-29T10:11:07;14.40;99.90
10175;DHT22;18221;38.704;0.152;2022-12-29T10:14:00;14.50;99.90
10175;DHT22;18221;38.704;0.152;2022-12-29T10:16:46;14.50;99.90
10175;DHT22;18221;38.704;0.152;2022-12-29T10:19:38;14.50;99.90
10175;DHT22;18221;38.704;0.152;2022-12-29T10:22:32;14.60;99.90
10175;DHT22;18221;38.704;0.152;2022-12-29T10:25:14;14.60;99.90
10175;DHT22;18221;38.704;0.152;2022-12-29T10:27:47;14.70;99.90
10175;DHT22;18221;38.704;0.152;2022-12-29T10:30:17;14.80;99.90
10175;DHT22;18221;38.704;0.152;2022-12-29T10:32:49;14.80;99.90
10175;DHT22;18221;38.704;0.152;2022-12-29T10:35:24;14.80;99.90
10175;DHT22;18221;38.704;0.152;2022-12-29T10:37:57;14.90;99.90
10175;DHT22;18221;38.704;0.152;2022-12-29T10:40:36;14.90;99.90
10175;DHT22;18221;38.704;0.152;2022-12-29T10:43:19;14.90;99.90
10175;DHT22;18221;38.704;0.152;2022-12-29T10:45:54;15.00;99.90
10175;DHT22;18221;38.704;0.152;2022-12-29T10:48:27;15.00;99.90
10175;DHT22;18221;38.704;0.152;2022-12-29T10:51:02;15.10;99.90
10175;DHT22;18221;38.704;0.152;2022-12-29T10:53:37;15.10;99.90
10175;DHT22;18221;38.704;0.152;2022-12-29T10:56:16;15.10;99.90
10175;DHT22;18221;38.704;0.152;2022-12-29T10:58:55;15.20;99.90
10175;DHT22;18221;38.704;0.152;2022-12-29T11:01:36;15.20;99.90
10175;DHT22;18221;38.704;0.152;2022-12-29T11:04:27;15.20;99.90
10175;DHT22;18221;38.704;0.152;2022-12-29T11:07:05;15.30;99.90
10175;DHT22;18221;38.704;0.152;2022-12-29T11:09:37;15.30;99.90
10175;DHT22;18221;38.704;0.152;2022-12-29T11:12:22;15.30;99.90
10175;DHT22;18221;38.704;0.152;2022-12-29T11:15:13;15.30;99.90
10175;DHT22;18221;38.704;0.152;2022-12-29T11:17:47;15.30;99.90
10175;DHT22;18221;38.704;0.152;2022-12-29T11:20:29;15.40;99.90
10175;DHT22;18221;38.704;0.152;2022-12-29T11:23:02;15.40;99.90
10175;DHT22;18221;38.704;0.152;2022-12-29T11:25:35;15.50;99.90
10175;DHT22;18221;38.704;0.152;2022-12-29T11:28:14;15.50;99.90
10175;DHT22;18221;38.704;0.152;2022-12-29T11:30:44;15.50;99.90
10175;DHT22;18221;38.704;0.152;2022-12-29T11:33:12;15.40;99.90
10175;DHT22;18221;38.704;0.152;2022-12-29T11:35:42;15.40;99.90
10175;DHT22;18221;38.704;0.152;2022-12-29T11:38:19;15.40;99.90
10175;DHT22;18221;38.704;0.152;2022-12-29T11:40:51;15.40;99.90
10175;DHT22;18221;38.704;0.152;2022-12-29T11:43:23;15.50;99.90
10175;DHT22;18221;38.704;0.152;2022-12-29T11:45:59;15.60;99.90
10175;DHT22;18221;38.704;0.152;2022-12-29T11:48:32;15.60;99.90
10175;DHT22;18221;38.704;0.152;2022-12-29T11:51:06;15.60;99.90
10175;DHT22;18221;38.704;0.152;2022-12-29T11:53:41;15.60;99.90
10175;DHT22;18221;38.704;0.152;2022-12-29T11:56:16;15.60;99.90
10175;DHT22;18221;38.704;0.152;2022-12-29T11:58:50;15.60;99.90
10175;DHT22;18221;38.704;0.152;2022-12-29T12:01:22;15.70;99.90
10175;DHT22;18221;38.704;0.152;2022-12-29T12:04:01;15.80;99.90
10175;DHT22;18221;38.704;0.152;2022-12-29T12:06:38;15.80;99.90
10175;DHT22;18221;38.704;0.152;2022-12-29T12:09:21;15.80;99.90
10175;DHT22;18221;38.704;0.152;2022-12-29T12:11:55;15.80;99.90
10175;DHT22;18221;38.704;0.152;2022-12-29T12:14:31;15.80;99.90
10175;DHT22;18221;38.704;0.152;2022-12-29T12:17:06;15.80;99.90
10175;DHT22;18221;38.704;0.152;2022-12-29T12:19:45;15.90;99.90
10175;DHT22;18221;38.704;0.152;2022-12-29T12:22:24;15.80;99.90
10175;DHT22;18221;38.704;0.152;2022-12-29T12:25:03;15.90;99.90
10175;DHT22;18221;38.704;0.152;2022-12-29T12:27:44;15.90;99.90
10175;DHT22;18221;38.704;0.152;2022-12-29T12:30:19;15.90;99.90
10175;DHT22;18221;38.704;0.152;2022-12-29T12:32:54;16.00;99.90
10175;DHT22;18221;38.704;0.152;2022-12-29T12:35:39;16.10;99.90
10175;DHT22;18221;38.704;0.152;2022-12-29T12:38:19;16.10;99.90
10175;DHT22;18221;38.704;0.152;2022-12-29T12:41:07;16.10;99.90
10175;DHT22;18221;38.704;0.152;2022-12-29T12:43:45;16.20;99.90
10175;DHT22;18221;38.704;0.152;2022-12-29T12:46:35;16.20;99.90
10175;DHT22;18221;38.704;0.152;2022-12-29T12:49:35;16.20;99.90
10175;DHT22;18221;38.704;0.152;2022-12-29T12:52:29;16.30;99.90
10175;DHT22;18221;38.704;0.152;2022-12-29T12:58:18;16.50;99.90
10175;DHT22;18221;38.704;0.152;2022-12-29T13:01:04;16.60;99.90
10175;DHT22;18221;38.704;0.152;2022-12-29T13:03:53;16.80;99.90
10175;DHT22;18221;38.704;0.152;2022-12-29T13:07:01;16.90;99.90
10175;DHT22;18221;38.704;0.152;2022-12-29T13:09:45;17.10;99.90
10175;DHT22;18221;38.704;0.152;2022-12-29T13:12:33;17.10;99.90
10175;DHT22;18221;38.704;0.152;2022-12-29T13:15:15;17.20;99.90
10175;DHT22;18221;38.704;0.152;2022-12-29T13:17:56;17.50;99.90
10175;DHT22;18221;38.704;0.152;2022-12-29T13:20:38;17.50;99.90
10175;DHT22;18221;38.704;0.152;2022-12-29T13:23:20;17.40;99.90
10175;DHT22;18221;38.704;0.152;2022-12-29T13:26:01;17.50;99.90
10175;DHT22;18221;38.704;0.152;2022-12-29T13:28:43;17.60;99.90
10175;DHT22;18221;38.704;0.152;2022-12-29T13:31:24;17.60;99.90
10175;DHT22;18221;38.704;0.152;2022-12-29T13:34:05;17.60;99.90
10175;DHT22;18221;38.704;0.152;2022-12-29T13:36:49;17.60;99.90
10175;DHT22;18221;38.704;0.152;2022-12-29T13:39:24;17.60;99.90
10175;DHT22;18221;38.704;0.152;2022-12-29T13:41:59;17.50;99.90
10175;DHT22;18221;38.704;0.152;2022-12-29T13:44:32;17.40;99.90
10175;DHT22;18221;38.704;0.152;2022-12-29T13:47:16;17.30;99.90
10175;DHT22;18221;38.704;0.152;2022-12-29T13:49:51;17.20;99.90
10175;DHT22;18221;38.704;0.152;2022-12-29T13:52:27;17.20;99.90
10175;DHT22;18221;38.704;0.152;2022-12-29T13:55:17;17.20;99.90
10175;DHT22;18221;38.704;0.152;2022-12-29T13:57:54;17.10;99.90
10175;DHT22;18221;38.704;0.152;2022-12-29T14:00:32;17.10;99.90
10175;DHT22;18221;38.704;0.152;2022-12-29T14:03:23;17.10;99.90
10175;DHT22;18221;38.704;0.152;2022-12-29T14:06:20;17.00;99.90
10175;DHT22;18221;38.704;0.152;2022-12-29T14:08:52;16.90;99.90
10175;DHT22;18221;38.704;0.152;2022-12-29T14:11:28;16.80;99.90
10175;DHT22;18221;38.704;0.152;2022-12-29T14:13:59;16.70;99.90
10175;DHT22;18221;38.704;0.152;2022-12-29T14:16:40;16.60;99.90
10175;DHT22;18221;38.704;0.152;2022-12-29T14:19:16;16.60;99.90
10175;DHT22;18221;38.704;0.152;2022-12-29T14:21:54;16.60;99.90
10175;DHT22;18221;38.704;0.152;2022-12-29T14:24:39;16.60;99.90
10175;DHT22;18221;38.704;0.152;2022-12-29T14:30:51;16.70;99.90
10175;DHT22;18221;38.704;0.152;2022-12-29T14:33:21;16.70;99.90
10175;DHT22;18221;38.704;0.152;2022-12-29T14:35:54;16.70;99.90
10175;DHT22;18221;38.704;0.152;2022-12-29T14:38:29;16.70;99.90
10175;DHT22;18221;38.704;0.152;2022-12-29T14:41:26;16.70;99.90
10175;DHT22;18221;38.704;0.152;2022-12-29T14:46:55;16.90;99.90
10175;DHT22;18221;38.704;0.152;2022-12-29T14:49:29;16.90;99.90
10175;DHT22;18221;38.704;0.152;2022-12-29T14:52:15;17.00;99.90
10175;DHT22;18221;38.704;0.152;2022-12-29T14:54:51;16.90;99.90
10175;DHT22;18221;38.704;0.152;2022-12-29T14:57:36;16.80;99.90
10175;DHT22;18221;38.704;0.152;2022-12-29T15:00:16;16.70;99.90
10175;DHT22;18221;38.704;0.152;2022-12-29T15:02:50;16.60;99.90
10175;DHT22;18221;38.704;0.152;2022-12-29T15:05:33;16.60;99.90
10175;DHT22;18221;38.704;0.152;2022-12-29T15:08:07;16.60;99.90
10175;DHT22;18221;38.704;0.152;2022-12-29T15:10:42;16.50;99.90
10175;DHT22;18221;38.704;0.152;2022-12-29T15:13:20;16.50;99.90
10175;DHT22;18221;38.704;0.152;2022-12-29T15:15:51;16.50;99.90
10175;DHT22;18221;38.704;0.152;2022-12-29T15:18:24;16.50;99.90
10175;DHT22;18221;38.704;0.152;2022-12-29T15:20:55;16.60;99.90
10175;DHT22;18221;38.704;0.152;2022-12-29T15:23:29;16.50;99.90
10175;DHT22;18221;38.704;0.152;2022-12-29T15:26:04;16.50;99.90
10175;DHT22;18221;38.704;0.152;2022-12-29T15:28:38;16.50;99.90
10175;DHT22;18221;38.704;0.152;2022-12-29T15:31:12;16.50;99.90
10175;DHT22;18221;38.704;0.152;2022-12-29T15:33:43;16.40;99.90
10175;DHT22;18221;38.704;0.152;2022-12-29T15:36:18;16.40;99.90
10175;DHT22;18221;38.704;0.152;2022-12-29T15:38:50;16.40;99.90
10175;DHT22;18221;38.704;0.152;2022-12-29T15:41:29;16.30;99.90
10175;DHT22;18221;38.704;0.152;2022-12-29T15:44:26;16.30;99.90
10175;DHT22;18221;38.704;0.152;2022-12-29T15:47:02;16.20;99.90
10175;DHT22;18221;38.704;0.152;2022-12-29T15:49:47;16.30;99.90
10175;DHT22;18221;38.704;0.152;2022-12-29T15:52:28;16.10;99.90
10175;DHT22;18221;38.704;0.152;2022-12-29T15:55:40;16.00;99.90
10175;DHT22;18221;38.704;0.152;2022-12-29T15:58:25;16.20;99.90
10175;DHT22;18221;38.704;0.152;2022-12-29T16:00:57;16.40;99.90
10175;DHT22;18221;38.704;0.152;2022-12-29T16:03:33;15.80;99.90
10175;DHT22;18221;38.704;0.152;2022-12-29T16:06:23;15.80;99.90
10175;DHT22;18221;38.704;0.152;2022-12-29T16:09:00;15.70;99.90
10175;DHT22;18221;38.704;0.152;2022-12-29T16:11:34;15.70;99.90
10175;DHT22;18221;38.704;0.152;2022-12-29T16:14:09;15.70;99.90
10175;DHT22;18221;38.704;0.152;2022-12-29T16:16:43;15.50;99.90
10175;DHT22;18221;38.704;0.152;2022-12-29T16:19:18;15.50;99.90
10175;DHT22;18221;38.704;0.152;2022-12-29T16:21:51;15.40;99.90
10175;DHT22;18221;38.704;0.152;2022-12-29T16:24:21;15.40;99.90
10175;DHT22;18221;38.704;0.152;2022-12-29T16:26:58;15.30;99.90
10175;DHT22;18221;38.704;0.152;2022-12-29T16:29:30;15.30;99.90
10175;DHT22;18221;38.704;0.152;2022-12-29T16:32:00;15.20;99.90
10175;DHT22;18221;38.704;0.152;2022-12-29T16:34:30;15.20;99.90
10175;DHT22;18221;38.704;0.152;2022-12-29T16:37:01;15.20;99.90
10175;DHT22;18221;38.704;0.152;2022-12-29T16:39:33;15.10;99.90